Time;durP1;ratioP1;P1;durP2;ratioP2;P2;SDS_P1;SDS_P2;PMS_P1;PMS_P2;Temp;Humidity;BMP_temperature;BMP_pressure;BME280_temperature;BME280_humidity;BME280_pressure;Samples;Min_cycle;Max_cycle;Signal;HPM_P1;HPM_P2
2023/04/17 00:01:13;;;;;;;;;0.00;0.00;;;;;;;;5029081;28;8813;-69
2023/04/17 00:03:38;;;;;;;;;0.00;0.00;;;;;;;;5029238;28;9496;-69
2023/04/17 00:06:04;;;;;;;;;0.00;0.00;;;;;;;;5029207;28;8869;-69
2023/04/17 00:08:30;;;;;;;;;0.00;0.00;;;;;;;;5027795;28;8805;-69
2023/04/17 00:10:55;;;;;;;;;0.00;0.00;;;;;;;;5029050;28;8801;-69
2023/04/17 00:13:21;;;;;;;;;0.00;0.00;;;;;;;;5029444;28;8879;-69
2023/04/17 00:15:46;;;;;;;;;0.00;0.00;;;;;;;;5031604;28;8782;-69
2023/04/17 00:18:11;;;;;;;;;0.00;0.00;;;;;;;;5030378;28;8838;-70
2023/04/17 00:20:37;;;;;;;;;0.00;0.00;;;;;;;;5033179;28;8809;-70
2023/04/17 00:23:02;;;;;;;;;0.00;0.00;;;;;;;;5033036;28;8833;-70
2023/04/17 00:25:28;;;;;;;;;0.00;0.00;;;;;;;;5033290;28;8821;-70
2023/04/17 00:27:53;;;;;;;;;0.00;0.00;;;;;;;;5032939;28;8813;-69
2023/04/17 00:30:19;;;;;;;;;1.00;0.00;;;;;;;;5032905;28;8801;-69
2023/04/17 00:32:44;;;;;;;;;0.00;0.00;;;;;;;;5033200;28;9600;-70
2023/04/17 00:35:09;;;;;;;;;0.00;0.00;;;;;;;;5033229;28;8793;-70
2023/04/17 00:37:35;;;;;;;;;0.00;0.00;;;;;;;;5032766;28;8825;-69
2023/04/17 00:40:00;;;;;;;;;0.00;0.00;;;;;;;;5032770;28;8789;-70
2023/04/17 00:42:26;;;;;;;;;0.00;0.00;;;;;;;;5032742;28;8832;-70
2023/04/17 00:44:51;;;;;;;;;0.00;0.00;;;;;;;;5031221;28;8824;-70
2023/04/17 00:47:16;;;;;;;;;0.00;0.00;;;;;;;;5032715;28;8797;-71
2023/04/17 00:49:42;;;;;;;;;0.00;0.00;;;;;;;;5032359;28;8801;-69
2023/04/17 00:52:07;;;;;;;;;0.00;0.00;;;;;;;;5032260;28;8840;-69
2023/04/17 00:54:32;;;;;;;;;0.00;0.00;;;;;;;;5032247;28;8940;-69
2023/04/17 00:57:00;;;;;;;;;0.25;0.00;;;;;;;;5032100;28;8918;-69
2023/04/17 00:59:25;;;;;;;;;0.00;0.00;;;;;;;;5031876;28;8809;-69
2023/04/17 01:01:51;;;;;;;;;0.00;0.00;;;;;;;;5030836;28;11420;-70
2023/04/17 01:04:16;;;;;;;;;0.00;0.00;;;;;;;;5032304;28;8812;-69
2023/04/17 01:06:41;;;;;;;;;0.00;0.00;;;;;;;;5032064;28;8817;-69
2023/04/17 01:09:07;;;;;;;;;0.00;0.00;;;;;;;;5031983;28;8875;-70
2023/04/17 01:11:33;;;;;;;;;0.00;0.00;;;;;;;;5032124;28;8890;-69
2023/04/17 01:13:58;;;;;;;;;0.00;0.00;;;;;;;;5031989;28;8936;-69
2023/04/17 01:16:23;;;;;;;;;0.00;0.00;;;;;;;;5031767;28;8843;-70
2023/04/17 01:18:49;;;;;;;;;0.00;0.00;;;;;;;;5031867;28;8789;-70
2023/04/17 01:21:14;;;;;;;;;0.50;0.00;;;;;;;;5031891;28;8923;-69
2023/04/17 01:23:48;;;;;;;;;0.00;0.00;;;;;;;;5032261;28;8913;-70
2023/04/17 01:26:20;;;;;;;;;0.00;0.00;;;;;;;;5031768;28;8809;-68
2023/04/17 01:28:52;;;;;;;;;0.00;0.00;;;;;;;;5031014;28;11425;-70
2023/04/17 01:31:17;;;;;;;;;0.00;0.00;;;;;;;;5031787;28;11395;-70
2023/04/17 01:33:43;;;;;;;;;0.00;0.00;;;;;;;;5031507;28;12247;-68
2023/04/17 01:36:08;;;;;;;;;0.00;0.00;;;;;;;;5031568;28;8774;-68
2023/04/17 01:38:33;;;;;;;;;0.00;0.00;;;;;;;;5042133;28;9565;-71
2023/04/17 01:40:59;;;;;;;;;1.00;0.00;;;;;;;;5051552;28;8840;-71
2023/04/17 01:43:24;;;;;;;;;0.00;0.00;;;;;;;;5051848;28;9542;-70
2023/04/17 01:45:49;;;;;;;;;0.00;0.00;;;;;;;;5051539;28;9043;-70
2023/04/17 01:48:15;;;;;;;;;0.00;0.00;;;;;;;;5051434;28;8921;-71
2023/04/17 01:50:40;;;;;;;;;0.00;0.00;;;;;;;;5049702;28;8822;-70
2023/04/17 01:53:05;;;;;;;;;0.00;0.00;;;;;;;;5051289;28;9576;-70
2023/04/17 01:55:31;;;;;;;;;0.00;0.00;;;;;;;;5051136;28;8829;-70
2023/04/17 01:57:56;;;;;;;;;0.00;0.00;;;;;;;;5050857;28;8807;-71
2023/04/17 02:00:22;;;;;;;;;0.00;0.00;;;;;;;;5051168;28;8794;-70
2023/04/17 02:02:47;;;;;;;;;0.00;0.00;;;;;;;;5051151;28;8787;-71
2023/04/17 02:05:13;;;;;;;;;0.00;0.00;;;;;;;;5050930;28;8782;-70
2023/04/17 02:07:38;;;;;;;;;0.00;0.00;;;;;;;;5050894;28;8799;-70
2023/04/17 02:10:03;;;;;;;;;0.00;0.00;;;;;;;;5050504;28;8807;-70
2023/04/17 02:12:29;;;;;;;;;0.00;0.00;;;;;;;;5049706;28;8900;-71
2023/04/17 02:14:59;;;;;;;;;0.00;0.00;;;;;;;;5050924;28;8803;-70
2023/04/17 02:17:25;;;;;;;;;0.00;0.00;;;;;;;;5050682;28;8831;-71
2023/04/17 02:19:50;;;;;;;;;0.00;0.00;;;;;;;;5050397;28;11421;-71
2023/04/17 02:22:17;;;;;;;;;0.00;0.00;;;;;;;;5050840;28;8795;-71
2023/04/17 02:24:42;;;;;;;;;0.25;0.00;;;;;;;;5050905;28;8837;-71
2023/04/17 02:27:08;;;;;;;;;0.00;0.00;;;;;;;;5049399;28;11463;-71
2023/04/17 02:29:33;;;;;;;;;0.00;0.00;;;;;;;;5050436;28;8837;-70
2023/04/17 02:31:59;;;;;;;;;0.00;0.00;;;;;;;;5050468;28;8906;-70
2023/04/17 02:34:25;;;;;;;;;0.00;0.00;;;;;;;;5050352;28;8806;-71
2023/04/17 02:36:51;;;;;;;;;0.00;0.00;;;;;;;;5051673;28;8943;-71
2023/04/17 02:39:16;;;;;;;;;0.00;0.00;;;;;;;;5051500;28;11379;-71
2023/04/17 02:41:42;;;;;;;;;0.00;0.00;;;;;;;;5049357;28;12170;-71
2023/04/17 02:44:07;;;;;;;;;0.00;0.00;;;;;;;;5050366;28;8787;-71
2023/04/17 02:46:32;;;;;;;;;0.00;0.00;;;;;;;;5050073;28;8849;-70
2023/04/17 02:48:57;;;;;;;;;0.50;0.00;;;;;;;;5050010;28;8790;-72
2023/04/17 02:51:23;;;;;;;;;0.00;0.00;;;;;;;;5050064;28;8837;-70
2023/04/17 02:53:48;;;;;;;;;0.00;0.00;;;;;;;;5050151;28;8810;-70
2023/04/17 02:56:14;;;;;;;;;0.00;0.00;;;;;;;;5048567;28;8822;-71
2023/04/17 02:58:39;;;;;;;;;0.00;0.00;;;;;;;;5050069;28;8803;-71
2023/04/17 03:01:05;;;;;;;;;0.00;0.00;;;;;;;;5049955;28;8885;-70
2023/04/17 03:03:33;;;;;;;;;0.00;0.00;;;;;;;;5049972;28;8817;-71
2023/04/17 03:05:58;;;;;;;;;0.00;0.00;;;;;;;;5049893;28;8917;-71
2023/04/17 03:08:24;;;;;;;;;0.25;0.00;;;;;;;;5049631;28;12294;-71
2023/04/17 03:10:49;;;;;;;;;0.00;0.00;;;;;;;;5048379;28;8830;-72
2023/04/17 03:13:14;;;;;;;;;0.00;0.00;;;;;;;;5049926;28;8786;-72
2023/04/17 03:15:40;;;;;;;;;0.00;0.00;;;;;;;;5049595;28;9630;-71
2023/04/17 03:18:05;;;;;;;;;0.00;0.00;;;;;;;;5049657;28;8849;-72
2023/04/17 03:20:30;;;;;;;;;0.00;0.00;;;;;;;;5049758;28;8795;-72
2023/04/17 03:22:56;;;;;;;;;0.00;0.00;;;;;;;;5049596;28;8775;-72
2023/04/17 03:25:21;;;;;;;;;0.00;0.00;;;;;;;;5049781;28;8818;-72
2023/04/17 03:27:46;;;;;;;;;1.00;0.00;;;;;;;;5049448;28;8811;-72
2023/04/17 03:30:12;;;;;;;;;0.00;0.00;;;;;;;;5049435;28;8813;-72
2023/04/17 06:39:06;;;;;;;;;;;;;;;;;;5109646;27;13393;-69
2023/04/17 06:41:31;;;;;;;;;;;;;;;;;;5108979;28;7536;-69
2023/04/17 06:43:56;;;;;;;;;;;;;;;;;;5108440;28;7540;-71
2023/04/17 06:46:21;;;;;;;;;;;;;;;;;;5109040;28;7979;-72
2023/04/17 06:48:48;;;;;;;;;;;;;;;;;;5108737;28;7547;-71
2023/04/17 06:51:13;;;;;;;;;;;;;;;;;;5115225;28;7561;-69
2023/04/17 06:53:38;;;;;;;;;;;;;;;;;;5108793;28;7532;-70
2023/04/17 08:27:07;;;;;;;;;2.00;2.00;;;;;;;;5113503;27;14214;-70
2023/04/17 08:29:32;;;;;;;;;1.00;1.00;;;;;;;;5091046;28;13446;-70
2023/04/17 08:31:57;;;;;;;;;0.75;0.75;;;;;;;;5096989;28;8831;-69
2023/04/17 08:34:22;;;;;;;;;1.00;1.00;;;;;;;;5094454;28;8807;-70
2023/04/17 08:36:51;;;;;;;;;1.00;1.00;;;;;;;;5096407;28;8868;-74
2023/04/17 08:39:17;;;;;;;;;2.50;1.50;;;;;;;;5094213;28;8838;-68
2023/04/17 08:41:48;;;;;;;;;2.00;1.00;;;;;;;;5106508;28;11410;-73
2023/04/17 08:44:15;;;;;;;;;4.00;3.25;;;;;;;;5106722;28;8849;-67
2023/04/17 08:46:40;;;;;;;;;2.00;2.00;;;;;;;;5106806;28;11449;-68
2023/04/17 08:49:05;;;;;;;;;1.00;1.00;;;;;;;;5095397;28;12252;-68
2023/04/17 08:51:31;;;;;;;;;1.25;1.00;;;;;;;;5086588;28;8906;-72
2023/04/17 08:53:56;;;;;;;;;2.00;1.00;;;;;;;;5090191;28;8827;-68
2023/04/17 08:56:22;;;;;;;;;3.00;2.00;;;;;;;;5106067;28;8871;-68
2023/04/17 08:58:47;;;;;;;;;2.00;1.00;;;;;;;;5104727;28;8788;-67
2023/04/17 09:01:17;;;;;;;;;1.00;1.00;;;;;;;;5104671;28;9507;-67
2023/04/17 09:03:42;;;;;;;;;0.50;0.50;;;;;;;;5104460;28;9797;-68
2023/04/17 09:06:09;;;;;;;;;1.00;1.00;;;;;;;;5104414;28;11421;-67
2023/04/17 09:08:34;;;;;;;;;1.25;1.25;;;;;;;;5104000;28;8819;-68
2023/04/17 09:11:00;;;;;;;;;3.50;3.25;;;;;;;;5104743;28;11408;-68
2023/04/17 09:13:26;;;;;;;;;4.00;2.25;;;;;;;;5106432;28;8902;-69
2023/04/17 09:16:05;;;;;;;;;2.00;0.00;;;;;;;;5106528;28;8868;-66
2023/04/17 09:18:31;;;;;;;;;1.25;1.00;;;;;;;;5100169;28;11407;-67
2023/04/17 09:20:58;;;;;;;;;1.50;1.50;;;;;;;;5086092;28;11534;-67
2023/04/17 09:23:24;;;;;;;;;1.00;1.00;;;;;;;;5085696;28;8782;-68
2023/04/17 09:26:09;;;;;;;;;2.00;2.00;;;;;;;;5082637;28;14372;-68
